Pagina principale
METAR-TAF:

METAR-TAF

Aeroporti :

Ancona, Italia

latitudine: 43-37N, longitudine: 013-22E, altezza: 12 m

Osservazione

Il bollettino è stato emesso 25 minuti fa, alle 01:20 UTC
Vento 3 kt da sud/sud-ovest, variando fra sud-est e sud-ovest
Temperature 16°C
Umidità 88%
Pressione 1014 hPa
Visibilità 10 km o più

METAR: LIPY 280120Z AUTO 21003KT 130V230 9999 BKN160/// 16/14 Q1014

Ora: 03:45 (01:45 UTC)

Previsione

Il bollettino è stato emesso 2 ore e 45 minuti fa, alle 23:00 UTC
Previsione valida dal 28 alle 00 UTC al 28 alle 24 UTC
Vento 5 kt da direzioni variabili
Visibilità 10 km o più
Poco nuvoloso ad un'altezza di 6000 ft
Evoluzione graduale
dal 28 alle 10 UTC al 28 alle 12 UTC
Vento 10 kt da est/nord-est
Temporaneamente
dal 28 alle 14 UTC al 28 alle 17 UTC
Visibilità: 4000 m
rovesci di pioggia,

TAF: LIPY 272300Z 2800/2824 VRB05KT 9999 FEW060 BECMG 2810/2812 07010KT TEMPO 2814/2817 4000 SHRA

Osservazioni e previsioni meteorologiche di più di 4000 aeroporti (messaggi METAR e TAF).

Le stazioni disponibili sono rappresentate dai dischi gialli e rossi sulla carta.

Puntare il mouse per vedere il nome della stazione.

Clicca sopra per visualizzare le osservazioni e previsioni meteorologiche.

Per cambiare la mappa : fare clic sui pulsanti verdi con una croce nera per ingrandire, il pulsante verde con un trattino per diminuire, o sulla freccia verde per le mappe adiacenti.


METAR-TAF: